Time;durP1;ratioP1;P1;durP2;ratioP2;P2;SDS_P1;SDS_P2;PMS_P1;PMS_P2;Temp;Humidity;BMP_temperature;BMP_pressure;BME280_temperature;BME280_humidity;BME280_pressure;Samples;Min_cycle;Max_cycle;Signal;HPM_P1;HPM_P2
2023/01/19 00:02:11;1465147.00;4.88;2577.71;52657.00;0.18;91.78;;;;;2.20;1.00;;;;;;2265463;61;1382;-89
2023/01/19 00:04:38;880180.00;2.93;1521.34;8300.00;0.03;15.00;;;;;2.30;1.00;;;;;;2263747;61;996;-85
2023/01/19 00:07:07;850943.00;2.84;1470.12;77543.00;0.26;134.79;;;;;2.20;1.00;;;;;;2263648;61;2197;-89
2023/01/19 00:09:37;926990.00;3.09;1603.57;12565.00;0.04;22.39;;;;;2.20;1.00;;;;;;2263762;61;1051;-89
2023/01/19 00:12:04;929578.00;3.10;1608.13;59883.00;0.20;104.27;;;;;2.20;1.00;;;;;;2263444;61;1304;-89
2023/01/19 00:14:31;1043531.00;3.48;1809.73;24612.00;0.08;43.26;;;;;2.10;1.00;;;;;;2263501;61;904;-88
2023/01/19 00:16:58;760563.00;2.54;1312.43;35868.00;0.12;62.74;;;;;2.20;1.00;;;;;;2263422;61;991;-87
2023/01/19 00:19:27;947358.00;3.16;1639.45;25555.00;0.09;44.89;;;;;2.20;1.00;;;;;;2263400;61;1788;-87
2023/01/19 00:21:54;995194.00;3.32;1723.96;0.00;0.00;0.62;;;;;2.20;1.00;;;;;;2263767;61;1031;-88
2023/01/19 00:24:21;838384.00;2.79;1448.15;22683.00;0.08;39.92;;;;;2.30;1.00;;;;;;2263282;61;1245;-90
2023/01/19 00:29:19;1501056.00;5.00;2645.11;10368.00;0.03;18.59;;;;;2.00;1.00;;;;;;2270078;61;1400;-90
2023/01/19 00:34:22;435608.00;1.45;751.03;0.00;0.00;0.62;;;;;2.10;1.00;;;;;;2267750;56;1498;-90
2023/01/19 00:36:50;838174.00;2.79;1447.78;0.00;0.00;0.62;;;;;1.90;1.00;;;;;;2264078;61;1669;-89
2023/01/19 00:59:37;1270377.00;4.23;2217.99;0.00;0.00;0.62;;;;;1.70;1.00;;;;;;2261656;61;1413;-90
2023/01/19 01:04:39;401582.00;1.34;692.52;0.00;0.00;0.62;;;;;1.70;1.00;;;;;;2359028;41;2108;-88
2023/01/19 01:09:36;1004265.00;3.35;1740.03;0.00;0.00;0.62;;;;;1.70;1.00;;;;;;2265841;61;1354;-89
2023/01/19 01:12:03;715554.00;2.39;1234.22;0.00;0.00;0.62;;;;;1.80;1.00;;;;;;2264178;61;1664;-89
2023/01/19 01:14:30;678616.00;2.26;1170.18;0.00;0.00;0.62;;;;;1.70;1.00;;;;;;2264237;61;1010;-90
2023/01/19 01:19:31;1260037.00;4.20;2199.15;10004.00;0.03;17.96;;;;;1.80;1.00;;;;;;2265909;61;1330;-90
2023/01/19 01:24:27;1015098.00;3.38;1759.23;27222.00;0.09;47.77;;;;;1.90;1.00;;;;;;2265704;61;1361;-88
2023/01/19 01:31:57;1486725.00;4.96;2618.17;0.00;0.00;0.62;;;;;1.90;1.00;;;;;;2261807;61;1255;-90
2023/01/19 01:34:24;1157173.00;3.86;2012.98;59426.00;0.20;103.48;;;;;1.80;1.00;;;;;;2265117;40;3548;-90
2023/01/19 01:39:22;1146637.00;3.82;1994.03;0.00;0.00;0.62;;;;;1.70;1.00;;;;;;2276435;56;3674;-90
2023/01/19 01:41:49;910246.00;3.03;1574.12;0.00;0.00;0.62;;;;;1.60;1.00;;;;;;2283840;40;3573;-90
2023/01/19 01:44:48;600540.00;2.00;1035.15;0.00;0.00;0.62;;;;;1.70;1.00;;;;;;2264426;61;1593;-90
2023/01/19 01:49:46;1125017.00;3.75;1955.22;0.00;0.00;0.62;;;;;1.70;1.00;;;;;;2266309;61;1330;-91
2023/01/19 01:52:15;692973.00;2.31;1195.06;0.00;0.00;0.62;;;;;1.70;1.00;;;;;;2263918;61;1744;-90
2023/01/19 01:57:16;1118885.00;3.73;1944.23;0.00;0.00;0.62;;;;;1.70;1.00;;;;;;2265586;61;1306;-91
2023/01/19 01:59:48;575616.00;1.92;992.13;0.00;0.00;0.62;;;;;1.50;1.00;;;;;;2264210;61;1133;-90
2023/01/19 02:05:08;139076976.00;463.59;109020360.00;0.00;0.00;0.62;;;;;1.10;1.00;;;;;;2264399;61;667;-89
2023/01/19 02:13:20;796561.00;2.66;1375.13;128524.00;0.43;222.78;;;;;1.00;1.00;;;;;;2264006;61;1352;-90
2023/01/19 02:15:49;605980.00;2.02;1044.55;0.00;0.00;0.62;;;;;1.10;1.00;;;;;;2264135;61;980;-89
2023/01/19 02:18:21;415371.00;1.38;716.23;0.00;0.00;0.62;;;;;1.30;1.00;;;;;;2264189;61;2366;-90
2023/01/19 02:20:58;691366.00;2.30;1192.27;102182.00;0.34;177.34;;;;;1.30;1.00;;;;;;2264048;61;1658;-90
2023/01/19 02:23:39;451636.00;1.51;778.60;101982.00;0.34;176.99;;;;;1.50;1.00;;;;;;2264005;61;1744;-92
2023/01/19 02:26:09;687817.00;2.29;1186.12;101910.00;0.34;176.87;;;;;1.50;1.00;;;;;;2264246;61;1923;-90
2023/01/19 02:28:41;668720.00;2.23;1153.04;95607.00;0.32;165.99;;;;;1.50;1.00;;;;;;2264131;61;1182;-91
2023/01/19 02:31:09;857309.00;2.86;1481.26;109253.00;0.36;189.54;;;;;1.60;1.00;;;;;;2264088;61;987;-88
2023/01/19 02:33:37;673269.00;2.24;1160.91;127055.00;0.42;220.25;;;;;1.40;1.00;;;;;;2264343;61;1390;-88
2023/01/19 02:36:06;668820.00;2.23;1153.21;107169.00;0.36;185.94;;;;;1.40;1.00;;;;;;2264213;61;1698;-88
2023/01/19 02:38:37;1132639.00;3.78;1968.89;159128.00;0.53;275.54;;;;;1.50;1.00;;;;;;2264169;61;1793;-89
2023/01/19 02:41:07;792083.00;2.64;1367.32;105022.00;0.35;182.24;;;;;1.40;1.00;;;;;;2264227;61;1106;-89
2023/01/19 02:43:36;940457.00;3.13;1627.29;120397.00;0.40;208.77;;;;;1.40;1.00;;;;;;2264168;61;1518;-88
2023/01/19 02:46:03;2030302.00;6.77;3686.73;117463.00;0.39;203.71;;;;;1.20;1.00;;;;;;2264206;61;1920;-89
2023/01/19 02:48:31;761412.00;2.54;1313.91;113450.00;0.38;196.78;;;;;1.20;1.00;;;;;;2264256;61;869;-89
2023/01/19 02:51:03;640541.00;2.14;1104.27;95760.00;0.32;166.25;;;;;1.30;1.00;;;;;;2264143;61;1801;-88
2023/01/19 02:53:57;877911.00;2.93;1517.36;133358.00;0.44;231.12;;;;;1.40;1.00;;;;;;2264112;61;1625;-87
2023/01/19 02:56:53;556073.00;1.85;958.43;0.00;0.00;0.62;;;;;1.40;1.00;;;;;;2264147;61;1115;-88
2023/01/19 02:59:34;822851.00;2.74;1421.01;111975.00;0.37;194.24;;;;;1.40;1.00;;;;;;2264165;61;1631;-88
2023/01/19 03:02:17;903014.00;3.01;1561.41;97311.00;0.32;168.93;;;;;1.30;1.00;;;;;;2264143;61;1633;-88
2023/01/19 03:04:59;743156.00;2.48;1282.16;0.00;0.00;0.62;;;;;1.40;1.00;;;;;;2264204;61;1103;-88
2023/01/19 03:07:36;690858.00;2.30;1191.39;0.00;0.00;0.62;;;;;1.40;1.00;;;;;;2264094;61;1917;-87
2023/01/19 03:10:13;719609.00;2.40;1241.26;108655.00;0.36;188.51;;;;;1.50;1.00;;;;;;2264207;61;1135;-88
2023/01/19 03:12:46;864780.00;2.88;1494.34;106301.00;0.35;184.45;;;;;1.50;1.00;;;;;;2264190;61;1459;-89
2023/01/19 03:15:21;838951.00;2.80;1449.14;99918.00;0.33;173.43;;;;;1.50;1.00;;;;;;2264255;61;1124;-89
2023/01/19 03:17:51;1134287.00;3.78;1971.85;125980.00;0.42;218.40;;;;;1.40;1.00;;;;;;2264205;61;918;-90
2023/01/19 03:20:23;965413.00;3.22;1671.31;103686.00;0.35;179.93;;;;;1.40;1.00;;;;;;2264177;61;1063;-89
2023/01/19 03:22:57;1221109.00;4.07;2128.43;187057.00;0.62;323.64;;;;;1.40;1.00;;;;;;2264145;61;1635;-89
2023/01/19 03:25:27;1274944.00;4.25;2226.32;102580.00;0.34;178.03;;;;;1.50;1.00;;;;;;2264184;61;1120;-90
2023/01/19 03:27:57;1317852.00;4.39;2304.81;116154.00;0.39;201.45;;;;;1.50;1.00;;;;;;2264187;61;1936;-90
2023/01/19 03:30:29;2313129.00;7.71;4288.36;163984.00;0.55;283.90;;;;;1.40;1.00;;;;;;2264234;61;965;-90
2023/01/19 03:33:01;1176526.00;3.92;2047.84;125581.00;0.42;217.71;;;;;1.50;1.00;;;;;;2264222;61;1464;-88
2023/01/19 03:35:35;1453241.00;4.84;2555.44;150517.00;0.50;260.70;;;;;1.30;1.00;;;;;;2264161;61;1130;-89
2023/01/19 03:38:07;1188926.00;3.96;2070.21;125020.00;0.42;216.74;;;;;1.20;1.00;;;;;;2264181;61;957;-89
2023/01/19 03:40:37;1285618.00;4.29;2245.81;153995.00;0.51;266.69;;;;;1.20;1.00;;;;;;2264198;61;965;-89
2023/01/19 03:43:05;1132888.00;3.78;1969.34;185835.00;0.62;321.54;;;;;1.10;1.00;;;;;;2264067;61;1391;-89
2023/01/19 03:45:34;1429652.00;4.77;2511.43;146572.00;0.49;253.90;;;;;1.20;1.00;;;;;;2264087;61;1060;-90
2023/01/19 03:48:02;1010175.00;3.37;1750.50;102111.00;0.34;177.22;;;;;1.30;1.00;;;;;;2264078;61;1936;-88
2023/01/19 03:50:30;862868.00;2.88;1491.00;98438.00;0.33;170.88;;;;;1.10;1.00;;;;;;2264062;61;1578;-86
2023/01/19 03:53:05;1019274.00;3.40;1766.64;100072.00;0.33;173.70;;;;;1.20;1.00;;;;;;2264109;61;1297;-88
2023/01/19 03:55:33;890902.00;2.97;1540.15;0.00;0.00;0.62;;;;;1.20;1.00;;;;;;2264030;61;1097;-88
2023/01/19 03:58:01;901056.00;3.00;1557.97;0.00;0.00;0.62;;;;;1.40;1.00;;;;;;2264138;61;846;-89
2023/01/19 04:00:28;1018596.00;3.40;1765.44;16935.00;0.06;29.96;;;;;1.40;1.00;;;;;;2264121;61;988;-89
2023/01/19 04:02:55;868506.00;2.90;1500.87;0.00;0.00;0.62;;;;;1.50;1.00;;;;;;2263918;61;1379;-89
2023/01/19 04:05:22;745173.00;2.48;1285.67;14093.00;0.05;25.04;;;;;1.50;1.00;;;;;;2264821;61;953;-88
2023/01/19 04:07:50;1065893.00;3.55;1849.53;8912.00;0.03;16.06;;;;;1.50;1.00;;;;;;2264680;61;1932;-88
2023/01/19 04:10:18;839291.00;2.80;1449.74;0.00;0.00;0.62;;;;;1.50;1.00;;;;;;2264782;61;1426;-88
2023/01/19 04:12:45;1083979.00;3.61;1881.80;32388.00;0.11;56.72;;;;;1.40;1.00;;;;;;2264647;61;1509;-89
2023/01/19 04:15:15;896715.00;2.99;1550.35;14857.00;0.05;26.36;;;;;1.50;1.00;;;;;;2264866;61;1013;-88
2023/01/19 04:17:42;972076.00;3.24;1683.08;0.00;0.00;0.62;;;;;1.40;1.00;;;;;;2264651;61;1709;-90
2023/01/19 04:20:10;1562103.00;5.21;2760.53;126913.00;0.42;220.01;;;;;1.20;1.00;;;;;;2264706;61;1121;-88
2023/01/19 04:22:38;1176261.00;3.92;2047.36;3705.00;0.01;7.04;;;;;1.10;1.00;;;;;;2264644;61;1531;-88
2023/01/19 04:25:05;1117905.00;3.73;1942.47;0.00;0.00;0.62;;;;;1.10;1.00;;;;;;2264735;61;983;-88
2023/01/19 04:27:32;1328117.00;4.43;2323.66;14089.00;0.05;25.03;;;;;0.90;1.00;;;;;;2264664;61;2005;-88
2023/01/19 04:29:59;1610408.00;5.37;2852.65;96140.00;0.32;166.91;;;;;0.80;1.00;;;;;;2264631;61;2281;-89
2023/01/19 04:32:28;1048514.00;3.50;1818.59;108020.00;0.36;187.41;;;;;0.90;1.00;;;;;;2264606;61;1363;-89
2023/01/19 04:34:55;1507701.00;5.03;2657.62;190748.00;0.64;330.00;;;;;0.90;1.00;;;;;;2264581;61;1589;-89
2023/01/19 04:37:22;1401568.00;4.67;2459.23;111907.00;0.37;194.12;;;;;1.00;1.00;;;;;;2264707;61;1143;-88
2023/01/19 04:39:49;1131625.00;3.77;1967.07;185225.00;0.62;320.49;;;;;1.00;1.00;;;;;;2264640;61;1167;-89
2023/01/19 04:42:16;1114034.00;3.71;1935.54;99981.00;0.33;173.54;;;;;0.90;1.00;;;;;;2264702;61;1366;-88
2023/01/19 04:44:43;995172.00;3.32;1723.92;92344.00;0.31;160.35;;;;;0.90;1.00;;;;;;2264682;61;1080;-88
2023/01/19 04:47:10;1240565.00;4.14;2163.74;102941.00;0.34;178.65;;;;;0.90;1.00;;;;;;2264676;61;1915;-90
2023/01/19 04:49:39;1171418.00;3.90;2038.63;158327.00;0.53;274.16;;;;;0.80;1.00;;;;;;2264599;61;1021;-87
2023/01/19 04:52:06;1064146.00;3.55;1846.42;102043.00;0.34;177.10;;;;;0.80;1.00;;;;;;2264542;61;1380;-89
2023/01/19 04:54:33;878059.00;2.93;1517.62;101016.00;0.34;175.33;;;;;1.00;1.00;;;;;;2264547;61;998;-89
2023/01/19 04:57:00;1157691.00;3.86;2013.91;100856.00;0.34;175.05;;;;;1.10;1.00;;;;;;2264474;61;1527;-87
2023/01/19 04:59:27;1263234.00;4.21;2204.98;117791.00;0.39;204.27;;;;;1.30;1.00;;;;;;2264626;61;940;-87
2023/01/19 05:01:54;991382.00;3.30;1717.21;121111.00;0.40;210.00;;;;;1.20;1.00;;;;;;2264603;61;1563;-88
2023/01/19 05:04:22;1218332.00;4.06;2123.40;97606.00;0.33;169.44;;;;;1.10;1.00;;;;;;2264585;61;1197;-89
2023/01/19 05:06:50;943883.00;3.15;1633.33;86193.00;0.29;149.73;;;;;1.20;1.00;;;;;;2264590;61;1993;-90
2023/01/19 05:09:17;923862.00;3.08;1598.07;130925.00;0.44;226.92;;;;;1.40;1.00;;;;;;2264482;61;992;-89
2023/01/19 05:11:44;982908.00;3.28;1702.22;102804.00;0.34;178.41;;;;;1.40;1.00;;;;;;2264560;61;1681;-89
2023/01/19 05:14:11;1025162.00;3.42;1777.09;124175.00;0.41;215.28;;;;;1.50;1.00;;;;;;2264477;61;1312;-90
2023/01/19 05:16:38;1246673.00;4.16;2174.84;108559.00;0.36;188.34;;;;;1.10;1.00;;;;;;2264490;61;933;-90
2023/01/19 05:19:05;1051818.00;3.51;1824.47;102838.00;0.34;178.47;;;;;0.90;1.00;;;;;;2264521;61;1010;-88
2023/01/19 05:21:32;1024607.00;3.42;1776.10;119912.00;0.40;207.93;;;;;0.90;1.00;;;;;;2264492;61;1715;-88
2023/01/19 05:24:00;825827.00;2.75;1426.20;104237.00;0.35;180.88;;;;;1.00;1.00;;;;;;2264485;61;1430;-89
2023/01/19 05:26:27;119365896.00;397.89;68895176.00;101828.00;0.34;176.73;;;;;0.90;1.00;;;;;;2264452;61;2012;-89
2023/01/19 05:28:54;770859.00;2.57;1330.35;103903.00;0.35;180.31;;;;;0.70;1.00;;;;;;2264523;61;987;-86
2023/01/19 05:31:21;924752.00;3.08;1599.63;101828.00;0.34;176.73;;;;;0.70;1.00;;;;;;2264441;61;1549;-88
2023/01/19 05:33:48;792428.00;2.64;1367.92;104133.00;0.35;180.71;;;;;0.90;1.00;;;;;;2264510;61;1271;-89
2023/01/19 05:36:15;958148.00;3.19;1658.48;96015.00;0.32;166.69;;;;;0.90;1.00;;;;;;2264465;61;1004;-89
2023/01/19 05:38:42;813832.00;2.71;1405.26;100306.00;0.33;174.10;;;;;0.90;1.00;;;;;;2264509;61;907;-88
2023/01/19 05:41:10;767576.00;2.56;1324.63;98578.00;0.33;171.12;;;;;1.00;1.00;;;;;;2264373;61;1007;-88
2023/01/19 05:43:37;886070.00;2.95;1531.67;179723.00;0.60;311.01;;;;;1.10;1.00;;;;;;2264386;61;1474;-87
2023/01/19 05:46:04;868223.00;2.89;1500.38;100901.00;0.34;175.13;;;;;1.10;1.00;;;;;;2264428;61;1452;-88
2023/01/19 05:48:31;767008.00;2.56;1323.64;105167.00;0.35;182.49;;;;;1.20;1.00;;;;;;2264410;61;1920;-88
2023/01/19 05:50:58;796826.00;2.66;1375.59;101240.00;0.34;175.71;;;;;0.90;1.00;;;;;;2264471;61;1103;-87
2023/01/19 05:53:25;843042.00;2.81;1456.30;101112.00;0.34;175.49;;;;;0.70;1.00;;;;;;2264325;61;1575;-88
2023/01/19 05:55:52;817117.00;2.72;1410.99;97443.00;0.32;169.16;;;;;0.90;1.00;;;;;;2264276;61;2021;-87
2023/01/19 05:58:20;869628.00;2.90;1502.84;90877.00;0.30;157.82;;;;;0.90;1.00;;;;;;2264370;61;1753;-88
2023/01/19 06:00:47;823278.00;2.74;1421.75;98857.00;0.33;171.60;;;;;1.00;1.00;;;;;;2264390;61;1131;-89
2023/01/19 06:03:14;785663.00;2.62;1356.13;104311.00;0.35;181.01;;;;;0.80;1.00;;;;;;2264302;61;1328;-88
2023/01/19 06:05:41;627959.00;2.09;1082.52;100310.00;0.33;174.11;;;;;0.80;1.00;;;;;;2264416;61;1099;-88
2023/01/19 06:08:08;764707.00;2.55;1319.64;118500.00;0.40;205.49;;;;;0.70;1.00;;;;;;2264342;61;1912;-87
2023/01/19 06:10:35;598790.00;2.00;1032.13;93685.00;0.31;162.67;;;;;0.60;1.00;;;;;;2264333;61;1184;-89
2023/01/19 06:13:02;612701.00;2.04;1056.16;105767.00;0.35;183.53;;;;;0.70;1.00;;;;;;2264301;61;1448;-90
2023/01/19 06:15:30;553453.00;1.84;953.91;94799.00;0.32;164.59;;;;;0.70;1.00;;;;;;2264417;61;1581;-88
2023/01/19 06:17:57;905491.00;3.02;1565.77;117984.00;0.39;204.60;;;;;0.80;1.00;;;;;;2264408;61;1005;-89
2023/01/19 06:20:24;786945.00;2.62;1358.37;108366.00;0.36;188.01;;;;;0.80;1.00;;;;;;2264256;61;2164;-88
2023/01/19 06:22:51;748149.00;2.49;1290.84;102253.00;0.34;177.46;;;;;0.60;1.00;;;;;;2264136;61;1491;-88
2023/01/19 06:25:18;582334.00;1.94;1003.73;103769.00;0.35;180.08;;;;;0.50;1.00;;;;;;2264363;61;991;-88
2023/01/19 06:27:45;568663.00;1.90;980.14;102671.00;0.34;178.18;;;;;0.50;1.00;;;;;;2264205;61;2004;-88
2023/01/19 06:30:13;484863.00;1.62;835.77;99917.00;0.33;173.43;;;;;0.40;1.00;;;;;;2264397;61;1038;-87
2023/01/19 06:32:41;617100.00;2.06;1063.76;74261.00;0.25;129.12;;;;;0.50;1.00;;;;;;2264221;61;1293;-88
2023/01/19 06:35:09;538900.00;1.80;928.83;104208.00;0.35;180.83;;;;;0.40;1.00;;;;;;2264195;61;1680;-88
2023/01/19 06:37:36;512373.00;1.71;883.13;101390.00;0.34;175.97;;;;;0.40;1.00;;;;;;2264305;61;1115;-89
2023/01/19 06:40:04;649477.00;2.16;1119.73;103099.00;0.34;178.92;;;;;0.40;1.00;;;;;;2264314;61;874;-87
2023/01/19 06:42:31;754952.00;2.52;1302.67;102430.00;0.34;177.77;;;;;0.10;1.00;;;;;;2264260;61;1301;-88
2023/01/19 06:44:58;388237.00;1.29;669.58;0.00;0.00;0.62;;;;;-0.20;1.00;;;;;;2264167;61;2023;-88
2023/01/19 06:47:24;425897.00;1.42;734.33;0.00;0.00;0.62;;;;;-0.20;1.00;;;;;;2264070;61;2010;-88
2023/01/19 06:49:53;571462.00;1.90;984.97;0.00;0.00;0.62;;;;;0.00;1.00;;;;;;2264236;61;1063;-89
2023/01/19 06:52:20;329570.00;1.10;568.75;0.00;0.00;0.62;;;;;0.20;1.00;;;;;;2264217;61;1377;-86
2023/01/19 06:54:47;322398.00;1.07;556.42;0.00;0.00;0.62;;;;;0.00;1.00;;;;;;2264203;61;1192;-90
2023/01/19 06:57:14;416739.00;1.39;718.58;0.00;0.00;0.62;;;;;0.10;1.00;;;;;;2264268;61;994;-90
2023/01/19 06:59:41;487537.00;1.63;840.37;22462.00;0.07;39.53;;;;;0.20;1.00;;;;;;2264170;61;1079;-89
2023/01/19 07:02:10;289395.00;0.96;499.69;0.00;0.00;0.62;;;;;0.30;1.00;;;;;;2264243;61;1270;-88
2023/01/19 07:04:37;438413.00;1.46;755.85;0.00;0.00;0.62;;;;;0.20;1.00;;;;;;2264134;61;1055;-88
2023/01/19 07:07:05;479559.00;1.60;826.64;21948.00;0.07;38.64;;;;;0.30;1.00;;;;;;2264226;61;1919;-88
2023/01/19 07:09:32;468659.00;1.56;807.88;0.00;0.00;0.62;;;;;0.30;1.00;;;;;;2264041;61;1505;-88
2023/01/19 07:11:59;525690.00;1.75;906.07;0.00;0.00;0.62;;;;;0.50;1.00;;;;;;2264211;61;1068;-88
2023/01/19 07:14:29;563377.00;1.88;971.02;70202.00;0.23;122.11;;;;;0.50;1.00;;;;;;2264185;61;1387;-89
2023/01/19 07:16:56;285707.00;0.95;493.35;0.00;0.00;0.62;;;;;0.40;1.00;;;;;;2264176;61;1611;-88
2023/01/19 07:19:23;345021.00;1.15;595.30;0.00;0.00;0.62;;;;;0.30;1.00;;;;;;2264251;61;986;-88
2023/01/19 07:21:50;432425.00;1.44;745.56;0.00;0.00;0.62;;;;;0.20;1.00;;;;;;2264258;61;1051;-88
2023/01/19 07:24:18;352678.00;1.18;608.46;0.00;0.00;0.62;;;;;0.10;1.00;;;;;;2264124;61;1685;-88
2023/01/19 07:26:45;439133.00;1.46;757.09;0.00;0.00;0.62;;;;;0.10;1.00;;;;;;2264098;61;935;-88
2023/01/19 07:29:12;331398.00;1.10;571.89;0.00;0.00;0.62;;;;;0.10;1.00;;;;;;2264202;61;2069;-87
2023/01/19 07:31:39;445377.00;1.48;767.83;0.00;0.00;0.62;;;;;0.00;1.00;;;;;;2264128;61;1290;-89
2023/01/19 07:34:06;645252.00;2.15;1112.42;18020.00;0.06;31.84;;;;;0.10;1.00;;;;;;2264145;61;1303;-89
2023/01/19 07:36:34;401574.00;1.34;692.51;5590.00;0.02;10.31;;;;;0.10;1.00;;;;;;2264177;61;996;-88
2023/01/19 07:39:01;474328.00;1.58;817.64;0.00;0.00;0.62;;;;;0.10;1.00;;;;;;2264493;61;1594;-89
2023/01/19 07:41:29;570394.00;1.90;983.13;0.00;0.00;0.62;;;;;0.30;1.00;;;;;;2264759;61;1090;-88
2023/01/19 07:43:56;357649.00;1.19;617.01;0.00;0.00;0.62;;;;;0.40;1.00;;;;;;2264786;61;1307;-89
2023/01/19 07:46:23;309437.00;1.03;534.14;0.00;0.00;0.62;;;;;0.40;1.00;;;;;;2264813;61;1245;-90
2023/01/19 07:48:50;449908.00;1.50;775.62;25699.00;0.09;45.14;;;;;0.50;1.00;;;;;;2264629;61;2005;-88
2023/01/19 07:51:17;325271.00;1.08;561.36;0.00;0.00;0.62;;;;;0.40;1.00;;;;;;2264717;61;1424;-87
2023/01/19 07:53:45;358431.00;1.19;618.35;0.00;0.00;0.62;;;;;0.30;1.00;;;;;;2264704;61;1298;-89
2023/01/19 07:56:12;320333.00;1.07;552.87;0.00;0.00;0.62;;;;;0.50;1.00;;;;;;2264732;61;1090;-88
2023/01/19 07:58:40;345958.00;1.15;596.91;0.00;0.00;0.62;;;;;0.60;1.00;;;;;;2264766;61;1083;-87
2023/01/19 08:01:08;341131.00;1.14;588.62;0.00;0.00;0.62;;;;;0.80;1.00;;;;;;2264762;61;1074;-88
2023/01/19 08:03:35;334593.00;1.12;577.38;0.00;0.00;0.62;;;;;0.90;1.00;;;;;;2264698;61;1747;-87
2023/01/19 08:06:04;268929.00;0.90;464.50;0.00;0.00;0.62;;;;;0.80;1.00;;;;;;2264707;61;1759;-89
2023/01/19 08:08:31;570399.00;1.90;983.14;53273.00;0.18;92.85;;;;;0.90;1.00;;;;;;2264695;61;2011;-87
2023/01/19 08:10:59;426637.00;1.42;735.60;0.00;0.00;0.62;;;;;0.90;1.00;;;;;;2264630;61;1020;-88
2023/01/19 08:13:26;268009.00;0.89;462.92;0.00;0.00;0.62;;;;;0.80;1.00;;;;;;2264713;61;1555;-87
2023/01/19 08:15:54;117630536.00;392.10;65931204.00;24388.00;0.08;42.87;;;;;1.10;1.00;;;;;;2264800;61;1106;-90
2023/01/19 08:18:22;329981.00;1.10;569.45;0.00;0.00;0.62;;;;;1.30;1.00;;;;;;2264743;61;2230;-89
2023/01/19 08:20:49;384752.00;1.28;663.59;0.00;0.00;0.62;;;;;1.40;1.00;;;;;;2264466;61;1113;-90
2023/01/19 08:23:16;467705.00;1.56;806.24;0.00;0.00;0.62;;;;;1.60;1.00;;;;;;2264206;61;1656;-88
2023/01/19 08:25:44;455639.00;1.52;785.48;0.00;0.00;0.62;;;;;1.70;1.00;;;;;;2264624;61;1483;-88
2023/01/19 08:28:14;340943.00;1.14;588.29;0.00;0.00;0.62;;;;;1.70;1.00;;;;;;2264591;61;1926;-87
2023/01/19 08:30:43;819144.00;2.73;1414.53;41471.00;0.14;72.43;;;;;1.70;1.00;;;;;;2264326;61;917;-91
2023/01/19 08:45:58;1868188.00;6.23;3357.09;142186.00;0.47;246.34;;;;;2.20;1.00;;;;;;2262641;61;1098;-91
2023/01/19 09:02:05;1012631.00;3.38;1754.86;0.00;0.00;0.62;;;;;2.70;1.00;;;;;;2492792;40;3954;31
2023/01/19 09:55:22;933986.00;3.11;1615.89;0.00;0.00;0.62;;;;;4.10;1.00;;;;;;2262529;61;1309;-90
2023/01/19 10:00:23;971897.00;3.24;1682.76;0.00;0.00;0.62;;;;;3.90;1.00;;;;;;2262748;61;1199;-90
2023/01/19 10:02:56;268029.00;0.89;462.95;19236.00;0.06;33.95;;;;;4.30;1.00;;;;;;2260756;61;1583;-91
2023/01/19 10:20:40;1239574.00;4.13;2161.94;101465.00;0.34;176.10;;;;;5.40;1.00;;;;;;2262520;61;982;-90
2023/01/19 10:23:35;780515.00;2.60;1347.16;112563.00;0.38;195.25;;;;;5.40;1.00;;;;;;2260886;61;1839;-92
2023/01/19 10:46:22;1967418.00;6.56;3557.64;73000.00;0.24;126.94;;;;;6.00;1.00;;;;;;2258822;61;1027;-91
2023/01/19 10:56:34;2341934.00;7.81;4351.70;92671.00;0.31;160.92;;;;;5.90;1.00;;;;;;2262348;61;1019;-89
2023/01/19 11:06:38;818039.00;2.73;1412.60;107664.00;0.36;186.80;;;;;6.00;1.00;;;;;;2505399;40;3412;31
2023/01/19 11:16:36;568602.00;1.90;980.04;0.00;0.00;0.62;;;;;6.30;1.00;;;;;;2262480;61;974;-89
2023/01/19 11:21:33;501592.00;1.67;864.56;0.00;0.00;0.62;;;;;6.10;1.00;;;;;;2258888;61;1440;-89
2023/01/19 11:29:04;755647.00;2.52;1303.88;0.00;0.00;0.62;;;;;6.40;1.00;;;;;;2262138;61;1870;-90
2023/01/19 11:36:34;2406068.00;8.02;4494.19;181129.00;0.60;313.43;;;;;6.60;1.00;;;;;;2270727;61;1332;-91
2023/01/19 11:46:34;776020.00;2.59;1339.33;0.00;0.00;0.62;;;;;6.30;1.00;;;;;;2262209;61;975;-92
2023/01/19 12:34:34;924220.00;3.08;1598.70;118043.00;0.39;204.71;;;;;7.10;1.00;;;;;;2259275;61;1394;-91
2023/01/19 12:37:05;921229.00;3.07;1593.44;112172.00;0.37;194.58;;;;;7.20;1.00;;;;;;2252716;61;922;-93
2023/01/19 12:39:34;121438680.00;404.80;72550384.00;99388.00;0.33;172.52;;;;;7.00;1.00;;;;;;2252413;61;1474;-90
2023/01/19 12:42:12;390371.00;1.30;673.25;103425.00;0.34;179.48;;;;;6.70;1.00;;;;;;2252526;61;854;-91
2023/01/19 12:44:39;359383.00;1.20;619.99;99152.00;0.33;172.11;;;;;6.40;1.00;;;;;;2499646;55;4047;31
2023/01/19 12:52:23;819240.00;2.73;1414.70;10418.00;0.03;18.67;;;;;6.50;1.00;;;;;;2262523;61;1277;-90
2023/01/19 14:21:24;614468.00;2.05;1059.21;0.00;0.00;0.62;;;;;6.50;1.00;;;;;;2501107;55;3615;31
2023/01/19 15:21:50;763111.00;2.54;1316.86;0.00;0.00;0.62;;;;;6.70;1.00;;;;;;2262505;61;1008;-92
2023/01/19 16:25:09;1296741.00;4.32;2266.14;48153.00;0.16;83.99;;;;;5.90;1.00;;;;;;2504148;55;3628;31
2023/01/19 16:32:37;1767074.00;5.89;3156.51;53865.00;0.18;93.87;;;;;6.00;1.00;;;;;;2504097;40;3466;31
2023/01/19 17:13:21;1525369.00;5.08;2690.95;107263.00;0.36;186.11;;;;;5.50;1.00;;;;;;2262653;61;1370;-90
2023/01/19 17:41:18;1867562.00;6.23;3355.84;203037.00;0.68;351.15;;;;;5.40;1.00;;;;;;1592690;55;3598;-89
2023/01/19 17:51:23;2017376.00;6.72;3660.06;192559.00;0.64;333.11;;;;;5.60;1.00;;;;;;2262741;61;970;-90
2023/01/19 17:56:28;124614440.00;415.38;78398056.00;123418696.00;411.40;76160744.00;;;;;5.40;1.00;;;;;;2262798;61;1202;-89
2023/01/19 17:58:55;851656.00;2.84;1471.37;104471.00;0.35;181.29;;;;;5.50;1.00;;;;;;2260861;61;1767;-90
2023/01/19 18:01:25;709628.00;2.37;1223.94;119210.00;0.40;206.72;;;;;5.30;1.00;;;;;;2260905;61;840;-91
2023/01/19 18:03:52;730910.00;2.44;1260.88;102654.00;0.34;178.15;;;;;5.50;1.00;;;;;;2260777;61;1589;-88
2023/01/19 19:19:25;1057195.00;3.52;1834.04;100214.00;0.33;173.94;;;;;5.40;1.00;;;;;;2262342;61;1313;-89
2023/01/19 20:32:29;621995.00;2.07;1072.21;0.00;0.00;0.62;;;;;5.50;1.00;;;;;;2262640;61;1272;-91
2023/01/19 21:22:47;581202.00;1.94;1001.77;0.00;0.00;0.62;;;;;4.30;1.00;;;;;;2262641;61;1258;-88
2023/01/19 22:13:08;537478.00;1.79;926.38;125383.00;0.42;217.37;;;;;3.60;1.00;;;;;;667768;41;2081;-89
2023/01/19 22:35:42;1064140.00;3.55;1846.41;0.00;0.00;0.62;;;;;4.80;1.00;;;;;;2287993;40;3667;-88
2023/01/19 23:00:53;1055151.00;3.52;1830.40;0.00;0.00;0.62;;;;;4.00;1.00;;;;;;2269561;55;3774;-89
2023/01/19 23:03:20;439317.00;1.46;757.41;37829.00;0.13;66.13;;;;;4.00;1.00;;;;;;2268293;40;3556;-87
2023/01/19 23:05:47;416198.00;1.39;717.65;0.00;0.00;0.62;;;;;4.00;1.00;;;;;;2290814;56;3759;-88
2023/01/19 23:08:14;402317.00;1.34;693.79;0.00;0.00;0.62;;;;;3.90;1.00;;;;;;2373818;40;3579;-89
2023/01/19 23:18:13;1098871.00;3.66;1908.40;17276.00;0.06;30.55;;;;;3.60;1.00;;;;;;2276549;56;3589;-89
2023/01/19 23:20:40;372134.00;1.24;641.90;0.00;0.00;0.62;;;;;3.70;1.00;;;;;;2268539;61;1659;-87
2023/01/19 23:23:07;681043.00;2.27;1174.38;38414.00;0.13;67.14;;;;;3.80;1.00;;;;;;2266672;61;1699;-89
2023/01/19 23:25:34;1007428.00;3.36;1745.63;87721.00;0.29;152.37;;;;;3.60;1.00;;;;;;2264641;61;1587;-89
2023/01/19 23:28:01;1666430.00;5.55;2960.38;184729.00;0.62;319.63;;;;;3.50;1.00;;;;;;2264600;61;763;-88
2023/01/19 23:30:28;1436830.00;4.79;2524.81;83532.00;0.28;145.14;;;;;3.40;1.00;;;;;;2291399;41;3788;-88
2023/01/19 23:32:55;1957230.00;6.52;3536.87;280137.00;0.93;483.77;;;;;3.50;1.00;;;;;;2267141;61;1390;-88
2023/01/19 23:35:24;118692808.00;395.64;67735224.00;135562.00;0.45;234.92;;;;;3.70;1.00;;;;;;2299204;40;3575;-89
2023/01/19 23:37:51;119572744.00;398.58;69254280.00;95210.00;0.32;165.30;;;;;3.50;1.00;;;;;;2284111;40;3595;-89
2023/01/19 23:40:18;947269.00;3.16;1639.30;101617.00;0.34;176.36;;;;;3.50;1.00;;;;;;2267700;61;1662;-90